West Salem, Wisconsin
Current Conditions -  °F | °C
As of 5:53 PM on Saturday 25 Oct 2014 (Local Time) from KLSE Reporting Station
Clear Clear  
Wind Chill: 16°   Ceiling: Unl
Heat Index: 16°   Visibility: 10mi
Dew Point: -1°   Wind: 13mph
Humidity: 32%   Direction: 300°WNW
Pressure: 29.99"   Gusts: NA
Location:  43.9°N, 91.08°W
Report Text: KLSE 252253Z 30011KT 10SM CLR 16/M01 A2999 RMK AO2 SLP156 T01561011
Loading
Personal Weather Stations






























Interactive Weather Map
Tropical Storm Tracking
New forecast layout! Learn more

10-Day Weather Forecast

Advertisements
Track Severe Weather on mobile